Time;durP1;ratioP1;P1;durP2;ratioP2;P2;SDS_P1;SDS_P2;PMS_P1;PMS_P2;Temp;Humidity;BMP_temperature;BMP_pressure;BME280_temperature;BME280_humidity;BME280_pressure;Samples;Min_cycle;Max_cycle;Signal;HPM_P1;HPM_P2
2023/06/01 00:02:02;;;;;;;7.32;5.10;;;;;;;;;;5016077;28;20057;-83
2023/06/01 00:04:27;;;;;;;7.03;5.00;;;;;;;;;;5036607;28;20056;-84
2023/06/01 00:06:53;;;;;;;9.85;5.68;;;;;;;;;;5041447;28;20089;-83
2023/06/01 00:09:18;;;;;;;9.43;5.15;;;;;;;;;;5038596;28;20473;-84
2023/06/01 00:11:44;;;;;;;9.65;5.65;;;;;;;;;;5038903;28;20037;-84
2023/06/01 00:14:09;;;;;;;7.63;5.18;;;;;;;;;;5029945;28;20053;-84
2023/06/01 00:16:36;;;;;;;11.07;5.55;;;;;;;;;;5031706;28;20034;-84
2023/06/01 00:19:03;;;;;;;9.02;5.60;;;;;;;;;;5035506;28;20056;-84
2023/06/01 00:21:31;;;;;;;11.75;5.60;;;;;;;;;;5035228;28;20052;-83
2023/06/01 00:23:57;;;;;;;10.05;5.35;;;;;;;;;;5039966;28;20044;-84
2023/06/01 00:26:23;;;;;;;10.30;5.47;;;;;;;;;;5026555;28;20041;-83
2023/06/01 00:28:50;;;;;;;8.63;5.13;;;;;;;;;;5021065;28;20030;-84
2023/06/01 00:31:15;;;;;;;12.95;5.32;;;;;;;;;;5026380;28;20052;-84
2023/06/01 00:33:41;;;;;;;9.68;5.10;;;;;;;;;;5031744;28;20068;-84
2023/06/01 00:36:07;;;;;;;9.55;5.03;;;;;;;;;;5033860;28;20133;-84
2023/06/01 00:38:32;;;;;;;9.10;5.40;;;;;;;;;;5038090;28;20041;-84
2023/06/01 00:40:58;;;;;;;9.60;5.20;;;;;;;;;;5045310;28;20410;-84
2023/06/01 00:43:23;;;;;;;9.30;5.40;;;;;;;;;;5045161;28;20033;-82
2023/06/01 00:45:49;;;;;;;9.20;5.40;;;;;;;;;;5014718;28;20101;-84
2023/06/01 00:48:16;;;;;;;12.77;5.93;;;;;;;;;;5028774;28;20037;-83
2023/06/01 00:50:42;;;;;;;9.23;6.00;;;;;;;;;;5031311;28;20077;-84
2023/06/01 00:53:14;;;;;;;8.65;5.82;;;;;;;;;;5034473;28;20033;-84
2023/06/01 00:55:41;;;;;;;8.00;5.87;;;;;;;;;;5034559;28;20034;-83
2023/06/01 00:58:07;;;;;;;9.15;5.60;;;;;;;;;;5041541;28;20069;-84
2023/06/01 01:00:32;;;;;;;9.60;6.18;;;;;;;;;;5037742;28;20460;-84
2023/06/01 01:03:00;;;;;;;10.93;6.25;;;;;;;;;;5027423;28;20038;-83
2023/06/01 01:05:26;;;;;;;8.13;5.80;;;;;;;;;;5031469;28;20057;-83
2023/06/01 01:08:21;;;;;;;8.93;5.72;;;;;;;;;;5026221;28;20034;-83
2023/06/01 01:11:06;;;;;;;7.35;5.30;;;;;;;;;;5035836;28;20049;-83
2023/06/01 01:13:46;;;;;;;7.97;5.18;;;;;;;;;;5040477;28;20083;-84
2023/06/01 01:16:47;;;;;;;7.32;5.32;;;;;;;;;;5039935;28;20057;-83
2023/06/01 01:19:35;;;;;;;7.82;5.65;;;;;;;;;;5008231;28;20056;-83
2023/06/01 01:22:26;;;;;;;8.30;5.40;;;;;;;;;;5034318;28;20030;-83
2023/06/01 01:25:18;;;;;;;10.68;5.50;;;;;;;;;;5017455;28;20094;-83
2023/06/01 01:27:51;;;;;;;8.18;5.40;;;;;;;;;;5022125;28;20035;-83
2023/06/01 01:30:21;;;;;;;8.52;5.35;;;;;;;;;;5043928;28;20512;-83
2023/06/01 01:32:50;;;;;;;12.48;5.43;;;;;;;;;;5044429;28;20619;-83
2023/06/01 01:35:17;;;;;;;8.27;5.70;;;;;;;;;;5028791;28;20034;-83
2023/06/01 01:37:53;;;;;;;9.18;5.88;;;;;;;;;;5032254;28;20114;-83
2023/06/01 01:40:18;;;;;;;8.40;5.20;;;;;;;;;;5036869;28;20091;-83
2023/06/01 01:42:44;;;;;;;7.05;5.05;;;;;;;;;;5038032;28;20060;-84
2023/06/01 01:45:10;;;;;;;9.90;5.70;;;;;;;;;;5041846;28;20040;-83
2023/06/01 01:47:58;;;;;;;9.27;5.30;;;;;;;;;;5031205;28;20484;-84
2023/06/01 01:50:28;;;;;;;9.20;5.40;;;;;;;;;;5032236;28;20042;-83
2023/06/01 01:52:56;;;;;;;10.13;6.00;;;;;;;;;;5045887;28;20097;-83
2023/06/01 01:55:24;;;;;;;7.18;5.85;;;;;;;;;;5045788;28;20091;-82
2023/06/01 01:57:55;;;;;;;8.30;5.70;;;;;;;;;;5038034;28;20072;-84
2023/06/01 02:00:21;;;;;;;8.60;5.50;;;;;;;;;;5041014;28;20026;-82
2023/06/01 02:02:47;;;;;;;8.90;5.35;;;;;;;;;;5043385;28;20071;-83
2023/06/01 02:05:12;;;;;;;10.00;5.35;;;;;;;;;;5046063;28;20029;-84
2023/06/01 02:07:38;;;;;;;8.45;5.18;;;;;;;;;;4996149;28;20093;-83
2023/06/01 02:10:05;;;;;;;8.52;5.60;;;;;;;;;;5004549;28;20041;-83
2023/06/01 02:12:31;;;;;;;7.38;5.63;;;;;;;;;;5024968;28;20426;-83
2023/06/01 02:14:56;;;;;;;8.10;5.28;;;;;;;;;;5028282;28;20117;-83
2023/06/01 02:17:25;;;;;;;9.02;5.25;;;;;;;;;;5031454;28;20418;-83
2023/06/01 02:19:50;;;;;;;8.35;5.57;;;;;;;;;;5017831;28;20026;-82
2023/06/01 02:22:16;;;;;;;7.57;5.07;;;;;;;;;;5020464;28;20435;-82
2023/06/01 02:24:41;;;;;;;8.15;5.40;;;;;;;;;;5017169;28;20034;-83
2023/06/01 02:27:07;;;;;;;8.88;5.30;;;;;;;;;;5021995;28;20056;-83
2023/06/01 02:29:33;;;;;;;7.25;5.28;;;;;;;;;;5025889;28;20042;-84
2023/06/01 02:31:58;;;;;;;7.35;5.15;;;;;;;;;;5029869;28;20044;-82
2023/06/01 02:34:24;;;;;;;8.80;5.20;;;;;;;;;;5030625;28;20388;-82
2023/06/01 02:36:50;;;;;;;9.05;5.57;;;;;;;;;;5034107;28;20407;-83
2023/06/01 02:39:17;;;;;;;9.02;5.15;;;;;;;;;;5028209;28;20496;-83
2023/06/01 02:41:42;;;;;;;8.32;5.32;;;;;;;;;;5020507;28;20403;-83
2023/06/01 02:44:08;;;;;;;8.88;4.80;;;;;;;;;;5035129;28;20037;-83
2023/06/01 02:46:34;;;;;;;8.73;4.90;;;;;;;;;;5024886;28;20038;-83
2023/06/01 02:49:00;;;;;;;7.93;4.90;;;;;;;;;;5027910;28;20364;-83
2023/06/01 02:51:25;;;;;;;18.48;5.43;;;;;;;;;;5031963;28;20108;-83
2023/06/01 02:54:01;;;;;;;7.82;5.28;;;;;;;;;;5034814;28;20029;-82
2023/06/01 02:56:26;;;;;;;7.18;4.72;;;;;;;;;;5014860;28;20041;-83
2023/06/01 02:59:13;;;;;;;9.07;5.47;;;;;;;;;;5021866;28;20121;-83
2023/06/01 03:01:46;;;;;;;7.47;5.25;;;;;;;;;;5008354;28;20040;-83
2023/06/01 03:04:12;;;;;;;6.82;5.15;;;;;;;;;;5026769;28;20120;-82
2023/06/01 03:06:40;;;;;;;10.80;5.70;;;;;;;;;;5030241;28;20133;-83
2023/06/01 03:09:25;;;;;;;8.35;5.85;;;;;;;;;;5033295;28;20029;-83
2023/06/01 03:11:57;;;;;;;11.95;5.97;;;;;;;;;;5025341;28;20034;-83
2023/06/01 03:14:22;;;;;;;10.43;5.85;;;;;;;;;;5019456;28;20040;-83
2023/06/01 03:16:48;;;;;;;8.30;5.53;;;;;;;;;;5018476;28;20032;-83
2023/06/01 03:19:18;;;;;;;12.05;5.40;;;;;;;;;;5025591;28;20109;-83
2023/06/01 03:21:46;;;;;;;14.15;7.88;;;;;;;;;;5028139;28;20040;-83
2023/06/01 03:24:12;;;;;;;9.88;6.25;;;;;;;;;;5030564;28;20120;-84
2023/06/01 03:26:38;;;;;;;12.20;7.45;;;;;;;;;;5035071;28;20056;-83
2023/06/01 03:29:04;;;;;;;13.68;8.10;;;;;;;;;;5018322;28;20034;-82
2023/06/01 03:31:34;;;;;;;14.60;8.88;;;;;;;;;;4983631;28;20069;-83
2023/06/01 03:34:00;;;;;;;14.25;8.55;;;;;;;;;;5003750;28;20089;-83
2023/06/01 03:36:26;;;;;;;9.80;7.30;;;;;;;;;;5023089;28;20029;-82
2023/06/01 03:38:51;;;;;;;15.30;7.47;;;;;;;;;;5026756;28;20059;-84
2023/06/01 03:41:20;;;;;;;10.48;6.25;;;;;;;;;;5032340;28;20033;-83
2023/06/01 03:43:45;;;;;;;9.57;6.32;;;;;;;;;;5033259;28;20103;-83
2023/06/01 03:46:11;;;;;;;9.98;6.18;;;;;;;;;;5005580;28;20038;-83
2023/06/01 03:48:37;;;;;;;11.80;6.05;;;;;;;;;;5035523;28;20049;-83
2023/06/01 03:51:03;;;;;;;8.98;5.82;;;;;;;;;;5021194;28;20095;-83
2023/06/01 03:53:31;;;;;;;10.27;5.90;;;;;;;;;;5025224;28;20033;-83
2023/06/01 03:55:57;;;;;;;8.98;6.00;;;;;;;;;;5027340;28;20045;-83
2023/06/01 03:58:29;;;;;;;8.63;5.63;;;;;;;;;;5031038;28;20037;-83
2023/06/01 04:00:56;;;;;;;8.00;5.72;;;;;;;;;;5031158;28;20043;-83
2023/06/01 04:03:23;;;;;;;7.00;5.28;;;;;;;;;;5013371;28;20038;-83
2023/06/01 04:05:58;;;;;;;9.15;5.53;;;;;;;;;;5020603;28;20077;-83
2023/06/01 04:08:25;;;;;;;9.05;5.60;;;;;;;;;;5020920;28;20089;-83
2023/06/01 04:10:51;;;;;;;8.65;5.55;;;;;;;;;;5022559;28;20039;-82
2023/06/01 04:13:16;;;;;;;10.35;5.35;;;;;;;;;;5011697;28;20034;-81
2023/06/01 04:15:42;;;;;;;7.88;5.22;;;;;;;;;;5031120;28;20088;-83
2023/06/01 04:18:08;;;;;;;9.57;5.80;;;;;;;;;;5010012;28;20040;-83
2023/06/01 04:20:48;;;;;;;7.57;5.63;;;;;;;;;;5015891;28;20038;-83
2023/06/01 04:23:16;;;;;;;7.88;5.57;;;;;;;;;;5003236;28;20046;-82
2023/06/01 04:25:43;;;;;;;8.38;5.82;;;;;;;;;;5022877;28;20080;-82
2023/06/01 04:28:10;;;;;;;8.55;5.55;;;;;;;;;;5026760;28;20079;-82
2023/06/01 04:30:35;;;;;;;11.00;5.35;;;;;;;;;;5030340;28;20038;-83
2023/06/01 04:33:01;;;;;;;10.23;5.32;;;;;;;;;;5032774;28;20103;-83
2023/06/01 04:35:28;;;;;;;7.63;5.07;;;;;;;;;;5004880;28;20532;-83
2023/06/01 04:37:56;;;;;;;8.05;5.22;;;;;;;;;;5019123;28;20522;-83
2023/06/01 04:40:22;;;;;;;8.30;5.45;;;;;;;;;;5022106;28;20487;-82
2023/06/01 04:42:55;;;;;;;10.57;5.22;;;;;;;;;;5024991;28;20603;-82
2023/06/01 04:45:21;;;;;;;11.05;5.90;;;;;;;;;;5007147;28;20041;-83
2023/06/01 04:47:47;;;;;;;7.93;5.40;;;;;;;;;;5025776;28;20041;-83
2023/06/01 04:50:29;;;;;;;9.18;5.05;;;;;;;;;;5021867;28;20065;-83
2023/06/01 04:52:55;;;;;;;14.52;6.05;;;;;;;;;;5031321;28;20041;-82
2023/06/01 04:55:20;;;;;;;9.20;5.43;;;;;;;;;;5019763;28;20065;-82
2023/06/01 04:57:46;;;;;;;8.75;5.20;;;;;;;;;;5023543;28;20471;-82
2023/06/01 05:00:17;;;;;;;8.38;5.63;;;;;;;;;;5025249;28;20037;-82
2023/06/01 05:02:44;;;;;;;9.15;5.70;;;;;;;;;;5027708;28;20044;-82
2023/06/01 05:05:12;;;;;;;9.27;5.85;;;;;;;;;;5030701;28;20037;-83
2023/06/01 05:07:38;;;;;;;7.95;5.80;;;;;;;;;;5016337;28;20404;-83
2023/06/01 05:10:06;;;;;;;8.20;6.03;;;;;;;;;;5018055;28;20030;-83
2023/06/01 05:12:38;;;;;;;;;;;;;;;;;;5004068;28;20116;-81
2023/06/01 05:15:07;;;;;;;8.05;5.45;;;;;;;;;;5031524;28;19913;-83
2023/06/01 05:17:33;;;;;;;8.27;5.32;;;;;;;;;;5008848;28;20121;-83
2023/06/01 05:20:01;;;;;;;11.50;5.70;;;;;;;;;;5029273;28;20088;-83
2023/06/01 05:22:26;;;;;;;7.85;5.32;;;;;;;;;;5033829;28;20033;-83
2023/06/01 05:24:52;;;;;;;7.72;5.40;;;;;;;;;;5000078;28;20468;-83
2023/06/01 05:27:17;;;;;;;9.25;5.80;;;;;;;;;;5018086;28;20036;-83
2023/06/01 05:29:43;;;;;;;9.52;5.82;;;;;;;;;;5020313;28;20045;-84
2023/06/01 05:32:09;;;;;;;10.32;5.57;;;;;;;;;;5023012;28;20038;-83
2023/06/01 05:34:35;;;;;;;10.68;6.13;;;;;;;;;;5025623;28;20041;-83
2023/06/01 05:37:02;;;;;;;14.95;5.97;;;;;;;;;;5041166;28;20144;-84
2023/06/01 05:39:28;;;;;;;8.80;5.80;;;;;;;;;;5028036;28;20034;-84
2023/06/01 05:41:55;;;;;;;12.98;5.43;;;;;;;;;;5012499;28;20070;-83
2023/06/01 05:44:22;;;;;;;12.00;5.47;;;;;;;;;;4999072;28;20042;-84
2023/06/01 05:46:49;;;;;;;9.57;5.72;;;;;;;;;;5019352;28;20041;-84
2023/06/01 05:49:15;;;;;;;11.82;5.45;;;;;;;;;;5024196;28;20029;-84
2023/06/01 05:51:42;;;;;;;8.23;5.43;;;;;;;;;;5027256;28;20039;-84
2023/06/01 05:54:09;;;;;;;8.13;5.57;;;;;;;;;;5004226;28;20037;-83
2023/06/01 05:56:40;;;;;;;7.43;5.40;;;;;;;;;;5024908;28;20030;-83
2023/06/01 05:59:07;;;;;;;8.80;5.22;;;;;;;;;;5016352;28;20120;-82
2023/06/01 06:01:32;;;;;;;9.68;5.22;;;;;;;;;;5019598;28;20136;-83
2023/06/01 06:03:58;;;;;;;9.45;5.47;;;;;;;;;;5027952;28;20045;-82
2023/06/01 06:06:25;;;;;;;9.18;5.30;;;;;;;;;;5031044;28;20052;-83
2023/06/01 06:08:51;;;;;;;10.02;5.18;;;;;;;;;;5019747;28;20059;-83
2023/06/01 06:11:16;;;;;;;8.07;5.50;;;;;;;;;;5037039;28;20116;-84
2023/06/01 06:13:42;;;;;;;11.05;5.43;;;;;;;;;;5012484;28;20046;-83
2023/06/01 06:16:07;;;;;;;10.13;5.82;;;;;;;;;;5022361;28;20095;-83
2023/06/01 06:18:33;;;;;;;9.25;5.40;;;;;;;;;;5027600;28;20184;-83
2023/06/01 06:20:58;;;;;;;11.38;5.72;;;;;;;;;;5029148;28;20061;-83
2023/06/01 06:23:24;;;;;;;10.85;5.80;;;;;;;;;;5032740;28;20030;-83
2023/06/01 06:25:49;;;;;;;9.55;5.53;;;;;;;;;;5018406;28;20458;-84
2023/06/01 06:28:15;;;;;;;9.52;5.07;;;;;;;;;;5020012;28;20030;-83
2023/06/01 06:30:41;;;;;;;12.23;5.88;;;;;;;;;;4988512;28;20057;-83
2023/06/01 06:33:07;;;;;;;9.70;6.15;;;;;;;;;;5022208;28;20524;-82
2023/06/01 06:35:32;;;;;;;15.05;6.05;;;;;;;;;;5027950;28;20518;-83
2023/06/01 06:37:58;;;;;;;8.45;5.55;;;;;;;;;;5029099;28;20118;-83
2023/06/01 06:40:23;;;;;;;8.45;5.65;;;;;;;;;;5035393;28;20037;-83
2023/06/01 06:42:50;;;;;;;9.32;6.35;;;;;;;;;;5030946;28;20461;-83
2023/06/01 06:45:16;;;;;;;8.93;5.85;;;;;;;;;;5020575;28;20072;-83
2023/06/01 06:47:42;;;;;;;11.98;6.03;;;;;;;;;;5022367;28;20064;-83
2023/06/01 06:50:08;;;;;;;13.77;5.90;;;;;;;;;;5024349;28;20066;-83
2023/06/01 06:52:33;;;;;;;9.35;6.05;;;;;;;;;;5030249;28;20047;-83
2023/06/01 06:54:59;;;;;;;9.00;5.53;;;;;;;;;;5033854;28;20496;-84
2023/06/01 06:57:24;;;;;;;9.65;5.30;;;;;;;;;;5035318;28;20108;-83
2023/06/01 06:59:50;;;;;;;10.30;6.18;;;;;;;;;;5001356;28;20034;-83
2023/06/01 07:02:16;;;;;;;8.90;5.80;;;;;;;;;;5035767;28;20038;-83
2023/06/01 07:04:41;;;;;;;8.65;5.53;;;;;;;;;;5025764;28;20463;-84
2023/06/01 07:07:07;;;;;;;9.63;5.68;;;;;;;;;;5028139;28;20039;-83
2023/06/01 07:09:33;;;;;;;8.30;5.50;;;;;;;;;;5033163;28;20033;-84
2023/06/01 07:11:58;;;;;;;9.90;5.43;;;;;;;;;;5033968;28;20034;-84
2023/06/01 07:14:24;;;;;;;8.68;5.90;;;;;;;;;;5018510;28;20135;-84
2023/06/01 07:16:50;;;;;;;18.70;6.40;;;;;;;;;;5022262;28;20030;-82
2023/06/01 07:19:16;;;;;;;11.43;6.00;;;;;;;;;;5022761;28;20424;-83
2023/06/01 07:21:42;;;;;;;9.15;5.80;;;;;;;;;;5026985;28;20037;-82
2023/06/01 07:24:08;;;;;;;8.93;6.50;;;;;;;;;;5030605;28;20041;-82
2023/06/01 07:26:33;;;;;;;9.93;5.90;;;;;;;;;;5032313;28;20136;-82
2023/06/01 07:28:59;;;;;;;11.35;5.97;;;;;;;;;;5034910;28;20164;-83
2023/06/01 07:31:25;;;;;;;8.40;6.03;;;;;;;;;;5018843;28;20037;-83
2023/06/01 07:33:51;;;;;;;9.43;5.85;;;;;;;;;;5022771;28;20075;-83
2023/06/01 07:36:23;;;;;;;11.10;6.07;;;;;;;;;;5023944;28;20049;-84
2023/06/01 07:38:50;;;;;;;9.85;6.57;;;;;;;;;;5024645;28;20065;-83
2023/06/01 07:41:16;;;;;;;10.85;6.20;;;;;;;;;;5031247;28;20084;-83
2023/06/01 07:43:41;;;;;;;10.30;6.07;;;;;;;;;;5031574;28;20033;-83
2023/06/01 07:46:07;;;;;;;14.50;6.30;;;;;;;;;;5026937;28;20050;-85
2023/06/01 07:48:35;;;;;;;12.23;6.70;;;;;;;;;;5036823;28;20037;-83
2023/06/01 07:51:05;;;;;;;11.13;6.43;;;;;;;;;;5026244;28;20042;-85
2023/06/01 07:53:33;;;;;;;11.15;6.38;;;;;;;;;;5024014;28;20030;-83
2023/06/01 07:55:59;;;;;;;11.77;6.50;;;;;;;;;;5028047;28;20033;-83
2023/06/01 07:58:24;;;;;;;11.98;6.40;;;;;;;;;;5009823;28;20047;-82
2023/06/01 08:00:50;;;;;;;11.93;6.55;;;;;;;;;;5033464;28;20065;-84
2023/06/01 08:03:16;;;;;;;10.38;6.43;;;;;;;;;;5006715;28;20138;-82
2023/06/01 08:05:44;;;;;;;9.40;6.18;;;;;;;;;;5005408;28;20084;-83
2023/06/01 08:08:10;;;;;;;12.27;6.82;;;;;;;;;;5021836;28;20029;-83
2023/06/01 08:10:35;;;;;;;11.80;6.40;;;;;;;;;;5026611;28;20752;-84
2023/06/01 08:13:02;;;;;;;9.95;6.60;;;;;;;;;;5029396;28;20131;-83
2023/06/01 08:15:28;;;;;;;11.35;6.53;;;;;;;;;;5030310;28;20033;-82
2023/06/01 08:17:54;;;;;;;11.38;6.50;;;;;;;;;;5027113;28;20072;-84
2023/06/01 08:20:21;;;;;;;11.18;6.18;;;;;;;;;;5015707;28;20038;-83
2023/06/01 08:22:48;;;;;;;13.45;6.22;;;;;;;;;;5021440;28;20120;-83
2023/06/01 08:25:14;;;;;;;10.93;5.78;;;;;;;;;;5032392;28;20037;-83
2023/06/01 08:27:40;;;;;;;10.73;6.40;;;;;;;;;;5026268;28;20040;-84
2023/06/01 08:30:07;;;;;;;13.23;6.35;;;;;;;;;;5029234;28;20057;-83
2023/06/01 08:32:32;;;;;;;14.50;6.30;;;;;;;;;;5030823;28;20112;-83
2023/06/01 08:34:58;;;;;;;14.20;6.50;;;;;;;;;;5010925;28;20038;-83
2023/06/01 08:37:23;;;;;;;10.38;6.15;;;;;;;;;;5002890;28;20051;-86
2023/06/01 08:39:49;;;;;;;10.05;6.53;;;;;;;;;;5025432;28;20093;-83
2023/06/01 08:42:17;;;;;;;14.52;6.43;;;;;;;;;;5027072;28;20065;-83
2023/06/01 08:44:43;;;;;;;12.02;6.78;;;;;;;;;;5027854;28;20041;-83
2023/06/01 08:47:08;;;;;;;11.50;6.00;;;;;;;;;;5032324;28;20041;-83
2023/06/01 08:49:36;;;;;;;9.82;6.30;;;;;;;;;;5024523;28;20046;-83
2023/06/01 08:52:06;;;;;;;9.13;5.72;;;;;;;;;;5022808;28;20042;-84
2023/06/01 08:54:32;;;;;;;11.18;6.28;;;;;;;;;;5020892;28;20108;-84
2023/06/01 08:57:04;;;;;;;12.60;6.40;;;;;;;;;;5022436;28;20505;-83
2023/06/01 08:59:31;;;;;;;14.65;6.88;;;;;;;;;;5022399;28;20029;-84
2023/06/01 09:01:57;;;;;;;10.82;6.72;;;;;;;;;;5030511;28;20480;-84
2023/06/01 09:04:23;;;;;;;12.02;6.50;;;;;;;;;;5030480;28;20144;-85
2023/06/01 09:06:49;;;;;;;10.93;6.78;;;;;;;;;;5019067;28;20036;-83
2023/06/01 09:09:14;;;;;;;15.70;7.05;;;;;;;;;;5030818;28;20034;-83
2023/06/01 09:11:40;;;;;;;10.35;6.80;;;;;;;;;;5031578;28;20037;-84
2023/06/01 09:14:22;;;;;;;10.07;6.13;;;;;;;;;;5023121;28;20084;-84
2023/06/01 09:16:48;;;;;;;11.48;6.80;;;;;;;;;;5026124;28;20504;-84
2023/06/01 09:19:14;;;;;;;11.50;6.72;;;;;;;;;;5029418;28;20102;-85
2023/06/01 09:21:40;;;;;;;13.10;6.50;;;;;;;;;;5032146;28;20522;-83
2023/06/01 09:24:19;;;;;;;11.85;6.88;;;;;;;;;;4997711;28;20038;-83
2023/06/01 09:26:48;;;;;;;10.10;5.93;;;;;;;;;;5000215;28;20038;-84
2023/06/01 09:29:13;;;;;;;9.82;6.50;;;;;;;;;;5021718;28;20068;-83
2023/06/01 09:31:47;;;;;;;13.02;7.13;;;;;;;;;;5022513;28;20567;-84
2023/06/01 09:34:18;;;;;;;10.35;6.32;;;;;;;;;;5040435;28;20072;-84
2023/06/01 09:36:45;;;;;;;11.27;6.93;;;;;;;;;;5032240;28;20042;-85
2023/06/01 09:39:16;;;;;;;11.52;6.72;;;;;;;;;;5021930;28;20066;-84
2023/06/01 09:41:54;;;;;;;13.30;6.85;;;;;;;;;;5018045;28;20064;-84
2023/06/01 09:44:32;;;;;;;11.55;6.60;;;;;;;;;;5005591;28;20046;-84
2023/06/01 09:46:59;;;;;;;11.02;5.95;;;;;;;;;;5027076;28;20029;-84
2023/06/01 09:49:30;;;;;;;10.88;5.57;;;;;;;;;;5031023;28;20041;-84
2023/06/01 09:52:05;;;;;;;7.18;5.20;;;;;;;;;;5027968;28;20091;-85
2023/06/01 09:54:41;;;;;;;9.38;5.50;;;;;;;;;;5036205;28;20479;-84
2023/06/01 09:57:08;;;;;;;17.90;6.35;;;;;;;;;;5019363;28;20038;-84
2023/06/01 09:59:44;;;;;;;12.65;6.68;;;;;;;;;;5023973;28;20128;-83
2023/06/01 10:02:15;;;;;;;9.98;5.97;;;;;;;;;;5008806;28;20068;-83
2023/06/01 10:04:45;;;;;;;10.90;6.05;;;;;;;;;;5019211;28;20511;-83
2023/06/01 10:07:13;;;;;;;11.63;5.75;;;;;;;;;;5032758;28;20064;-84
2023/06/01 10:09:41;;;;;;;9.98;6.00;;;;;;;;;;5035669;28;20030;-83
2023/06/01 10:12:08;;;;;;;9.50;5.70;;;;;;;;;;5005017;28;20066;-84
2023/06/01 10:14:37;;;;;;;9.90;6.20;;;;;;;;;;5019192;28;20164;-83
2023/06/01 10:17:03;;;;;;;8.82;5.95;;;;;;;;;;5021128;28;20034;-83
2023/06/01 10:19:29;;;;;;;15.02;6.68;;;;;;;;;;5024347;28;20480;-84
2023/06/01 10:21:57;;;;;;;12.05;6.78;;;;;;;;;;5031212;28;20080;-84
2023/06/01 10:24:23;;;;;;;14.10;6.03;;;;;;;;;;5030714;28;20025;-83
2023/06/01 10:27:01;;;;;;;12.25;6.63;;;;;;;;;;4998876;28;20079;-82
2023/06/01 10:29:29;;;;;;;11.05;6.38;;;;;;;;;;5019292;28;20022;-82
2023/06/01 10:31:55;;;;;;;9.30;5.82;;;;;;;;;;5026058;28;20045;-82
2023/06/01 10:34:42;;;;;;;11.40;5.65;;;;;;;;;;5027475;28;20655;-82
2023/06/01 10:37:07;;;;;;;10.70;6.28;;;;;;;;;;4998558;28;20079;-83
2023/06/01 10:39:34;;;;;;;12.93;6.30;;;;;;;;;;5018108;28;20029;-83
2023/06/01 10:42:17;;;;;;;9.88;6.53;;;;;;;;;;5023613;28;20096;-82
2023/06/01 10:44:42;;;;;;;12.40;6.00;;;;;;;;;;5023149;28;20522;-82
2023/06/01 10:47:11;;;;;;;10.20;5.68;;;;;;;;;;5028411;28;20069;-82
2023/06/01 10:49:51;;;;;;;8.93;5.25;;;;;;;;;;5028833;28;20082;-84
2023/06/01 10:52:32;;;;;;;11.93;5.82;;;;;;;;;;5017342;28;20036;-83
2023/06/01 10:55:10;;;;;;;11.40;5.90;;;;;;;;;;5020708;28;20030;-82
2023/06/01 10:57:44;;;;;;;10.20;5.38;;;;;;;;;;5023610;28;20029;-83
2023/06/01 11:00:13;;;;;;;10.05;5.00;;;;;;;;;;5012955;28;20037;-83
2023/06/01 11:03:04;;;;;;;11.50;5.38;;;;;;;;;;5035730;28;20038;-83
2023/06/01 11:05:50;;;;;;;12.18;6.15;;;;;;;;;;5015824;28;20073;-84
2023/06/01 11:08:19;;;;;;;11.02;6.15;;;;;;;;;;5037544;28;20125;-86
2023/06/01 11:10:50;;;;;;;10.75;6.22;;;;;;;;;;5029427;28;20077;-83
2023/06/01 11:13:21;;;;;;;13.05;6.10;;;;;;;;;;5014790;28;20038;-86
2023/06/01 11:16:27;;;;;;;10.90;5.80;;;;;;;;;;5030885;28;20174;-86
2023/06/01 11:18:58;;;;;;;9.15;5.82;;;;;;;;;;5011367;28;20108;-86
2023/06/01 11:21:28;;;;;;;9.25;5.25;;;;;;;;;;5017514;28;20030;-86
2023/06/01 11:23:56;;;;;;;12.60;5.57;;;;;;;;;;5021240;28;20053;-85
2023/06/01 11:26:28;;;;;;;7.20;5.50;;;;;;;;;;5024740;28;20041;-86
2023/06/01 11:29:03;;;;;;;9.88;5.90;;;;;;;;;;5027213;28;20045;-85
2023/06/01 11:31:36;;;;;;;9.82;5.72;;;;;;;;;;5029944;28;20436;-85
2023/06/01 11:34:01;;;;;;;10.93;5.90;;;;;;;;;;5030806;28;20485;-86
2023/06/01 11:36:27;;;;;;;9.57;5.10;;;;;;;;;;5020012;28;20034;-86
2023/06/01 11:38:55;;;;;;;10.15;4.78;;;;;;;;;;5020666;28;20029;-87
2023/06/01 11:41:25;;;;;;;9.23;5.25;;;;;;;;;;5028063;28;20049;-86
2023/06/01 11:43:58;;;;;;;7.45;4.93;;;;;;;;;;5027385;28;20076;-86
2023/06/01 11:46:24;;;;;;;12.23;5.30;;;;;;;;;;5030516;28;20072;-86
2023/06/01 11:49:09;;;;;;;6.68;4.85;;;;;;;;;;5038142;28;20045;-86
2023/06/01 11:51:42;;;;;;;9.07;5.00;;;;;;;;;;5034609;28;20041;-86
2023/06/01 11:54:08;;;;;;;9.52;5.28;;;;;;;;;;5004708;28;20456;-87
2023/06/01 11:56:39;;;;;;;7.13;5.22;;;;;;;;;;5004772;28;20105;-86
2023/06/01 11:59:09;;;;;;;11.45;5.40;;;;;;;;;;5029833;28;20033;-87
2023/06/01 12:01:38;;;;;;;12.48;5.00;;;;;;;;;;5032852;28;20562;-86
2023/06/01 12:04:07;;;;;;;7.28;4.90;;;;;;;;;;5036045;28;20033;-86
2023/06/01 12:06:33;;;;;;;7.63;4.50;;;;;;;;;;5039474;28;20030;-86
2023/06/01 12:08:59;;;;;;;7.07;4.53;;;;;;;;;;5020691;28;20031;-86
2023/06/01 12:11:26;;;;;;;6.47;4.38;;;;;;;;;;5005757;28;20092;-87
2023/06/01 12:13:54;;;;;;;8.00;4.40;;;;;;;;;;5025874;28;20045;-87
2023/06/01 12:16:21;;;;;;;6.38;4.40;;;;;;;;;;5030755;28;20100;-86
2023/06/01 12:18:46;;;;;;;7.88;4.68;;;;;;;;;;5032666;28;20116;-87
2023/06/01 12:21:12;;;;;;;9.82;4.80;;;;;;;;;;5037184;28;20034;-87
2023/06/01 12:23:38;;;;;;;7.22;4.68;;;;;;;;;;5038978;28;20040;-86
2023/06/01 12:26:04;;;;;;;7.95;4.35;;;;;;;;;;5020057;28;20034;-86
2023/06/01 12:28:51;;;;;;;9.88;4.68;;;;;;;;;;5024872;28;20095;-87
2023/06/01 12:31:17;;;;;;;10.50;4.80;;;;;;;;;;5040164;28;20063;-87
2023/06/01 12:33:44;;;;;;;9.07;5.00;;;;;;;;;;5032327;28;20040;-87
2023/06/01 12:36:12;;;;;;;5.93;4.53;;;;;;;;;;5035303;28;20116;-87
2023/06/01 12:38:52;;;;;;;6.25;4.47;;;;;;;;;;5035447;28;20033;-86
2023/06/01 12:41:18;;;;;;;10.20;4.93;;;;;;;;;;5022853;28;20575;-86
2023/06/01 12:43:45;;;;;;;7.88;4.65;;;;;;;;;;5021470;28;20105;-87
2023/06/01 12:46:19;;;;;;;7.00;4.82;;;;;;;;;;5027405;28;20109;-86
2023/06/01 12:48:46;;;;;;;7.93;4.65;;;;;;;;;;5029536;28;20033;-87
2023/06/01 12:51:12;;;;;;;7.75;4.68;;;;;;;;;;5032928;28;20029;-87
2023/06/01 12:53:37;;;;;;;10.00;4.85;;;;;;;;;;5035637;28;20044;-86
2023/06/01 12:56:03;;;;;;;6.68;4.68;;;;;;;;;;5037257;28;20081;-86
2023/06/01 12:58:28;;;;;;;8.32;4.60;;;;;;;;;;5015692;28;20031;-87
2023/06/01 13:00:54;;;;;;;8.07;4.50;;;;;;;;;;5004707;28;20053;-87
2023/06/01 13:03:21;;;;;;;6.63;4.57;;;;;;;;;;5007397;28;20037;-85
2023/06/01 13:05:46;;;;;;;10.60;4.43;;;;;;;;;;5016211;28;20492;-85
2023/06/01 13:08:13;;;;;;;5.93;4.40;;;;;;;;;;5024450;28;20044;-86
2023/06/01 13:10:38;;;;;;;7.15;4.13;;;;;;;;;;5026028;28;20037;-85
2023/06/01 13:13:04;;;;;;;7.07;4.15;;;;;;;;;;5020679;28;20053;-87
2023/06/01 13:15:29;;;;;;;6.50;4.32;;;;;;;;;;5023641;28;20045;-86
2023/06/01 13:17:56;;;;;;;5.65;4.28;;;;;;;;;;5026206;28;20042;-86
2023/06/01 13:20:22;;;;;;;6.95;4.20;;;;;;;;;;5024605;28;20447;-86
2023/06/01 13:22:48;;;;;;;5.93;4.00;;;;;;;;;;5010853;28;20072;-86
2023/06/01 13:25:14;;;;;;;7.47;4.88;;;;;;;;;;5034480;28;20087;-87
2023/06/01 13:27:39;;;;;;;8.15;4.20;;;;;;;;;;5033833;28;20037;-88
2023/06/01 13:30:05;;;;;;;11.32;4.20;;;;;;;;;;5032279;28;20108;-87
2023/06/01 13:32:31;;;;;;;7.82;4.32;;;;;;;;;;5002307;28;20041;-88
2023/06/01 13:34:57;;;;;;;8.05;4.72;;;;;;;;;;5028974;28;20180;-87
2023/06/01 13:37:22;;;;;;;6.30;4.43;;;;;;;;;;5037417;28;20049;-88
2023/06/01 13:39:48;;;;;;;7.50;4.47;;;;;;;;;;5030747;28;20108;-87
2023/06/01 13:42:16;;;;;;;8.02;4.80;;;;;;;;;;5031439;28;20446;-88
2023/06/01 13:44:45;;;;;;;10.25;5.07;;;;;;;;;;5034166;28;20429;-87
2023/06/01 13:47:16;;;;;;;8.80;4.70;;;;;;;;;;5024798;28;20101;-87
2023/06/01 13:49:42;;;;;;;14.05;4.82;;;;;;;;;;5021355;28;20033;-87
2023/06/01 13:52:09;;;;;;;7.90;4.82;;;;;;;;;;5026461;28;20021;-88
2023/06/01 13:54:34;;;;;;;7.68;4.63;;;;;;;;;;5007631;28;20061;-88
2023/06/01 13:57:02;;;;;;;6.95;4.65;;;;;;;;;;5018530;28;20069;-87
2023/06/01 13:59:30;;;;;;;9.15;4.90;;;;;;;;;;5012024;28;20025;-88
2023/06/01 14:01:56;;;;;;;7.38;4.63;;;;;;;;;;5016032;28;20100;-88
2023/06/01 14:04:22;;;;;;;8.13;4.78;;;;;;;;;;5026030;28;20034;-88
2023/06/01 14:06:49;;;;;;;9.95;4.80;;;;;;;;;;5018403;28;20108;-88
2023/06/01 14:09:16;;;;;;;6.40;4.40;;;;;;;;;;5021927;28;20078;-89
2023/06/01 14:11:42;;;;;;;9.80;4.47;;;;;;;;;;5027400;28;20043;-87
2023/06/01 14:14:08;;;;;;;7.35;4.85;;;;;;;;;;5026279;28;20503;-88
2023/06/01 14:16:33;;;;;;;8.20;4.90;;;;;;;;;;5024943;28;20092;-88
2023/06/01 14:18:59;;;;;;;7.18;4.57;;;;;;;;;;5036118;28;20033;-89
2023/06/01 14:21:25;;;;;;;9.00;4.90;;;;;;;;;;5016312;28;20484;-88
2023/06/01 14:23:50;;;;;;;10.80;4.88;;;;;;;;;;5015218;28;20033;-87
2023/06/01 14:26:16;;;;;;;7.88;4.43;;;;;;;;;;5021872;28;20048;-88
2023/06/01 14:28:42;;;;;;;8.38;4.40;;;;;;;;;;5023606;28;20048;-88
2023/06/01 14:31:07;;;;;;;6.30;4.50;;;;;;;;;;5026659;28;20042;-87
2023/06/01 14:33:32;;;;;;;7.22;4.40;;;;;;;;;;5024877;28;20037;-88
2023/06/01 14:35:58;;;;;;;9.85;4.63;;;;;;;;;;5031390;28;20033;-88
2023/06/01 14:38:24;;;;;;;5.28;3.92;;;;;;;;;;4997567;28;20042;-88
2023/06/01 14:40:49;;;;;;;7.28;4.50;;;;;;;;;;5019484;28;20037;-88
2023/06/01 14:43:15;;;;;;;9.30;4.50;;;;;;;;;;5022526;28;20609;-88
2023/06/01 14:45:40;;;;;;;7.22;4.43;;;;;;;;;;5025223;28;20053;-88